createdAt,value
2018-11-10T00:00:53.710Z,7.00
2018-11-10T00:03:21.967Z,7.10
2018-11-10T00:05:50.509Z,7.10
2018-11-10T00:08:18.854Z,7.10
2018-11-10T00:10:47.500Z,7.00
2018-11-10T00:13:16.041Z,7.00
2018-11-10T00:15:44.572Z,7.00
2018-11-10T00:18:12.855Z,7.10
2018-11-10T00:20:41.399Z,7.00
2018-11-10T00:23:09.759Z,7.00
2018-11-10T00:28:15.519Z,7.00
2018-11-10T00:30:44.422Z,6.90
2018-11-10T00:33:12.679Z,6.90
2018-11-10T00:35:41.290Z,6.90
2018-11-10T00:38:09.954Z,6.80
2018-11-10T00:40:38.380Z,6.90
2018-11-10T00:43:07.268Z,6.90
2018-11-10T00:45:35.871Z,6.90
2018-11-10T00:48:04.643Z,6.90
2018-11-10T00:50:33.444Z,6.90
2018-11-10T00:53:02.383Z,6.90
2018-11-10T00:55:30.988Z,6.80
2018-11-10T00:57:59.240Z,6.90
2018-11-10T01:00:27.791Z,6.90
2018-11-10T01:02:56.376Z,6.90
2018-11-10T01:05:24.651Z,6.90
2018-11-10T01:07:52.927Z,6.90
2018-11-10T01:10:21.814Z,6.90
2018-11-10T01:12:50.104Z,7.00
2018-11-10T01:15:18.636Z,6.90
2018-11-10T01:17:46.882Z,6.80
2018-11-10T01:20:15.293Z,6.80
2018-11-10T01:22:43.782Z,6.80
2018-11-10T01:25:12.203Z,6.80
2018-11-10T01:27:40.677Z,6.80
2018-11-10T01:30:12.608Z,6.80
2018-11-10T01:32:41.419Z,6.80
2018-11-10T01:35:10.307Z,6.80
2018-11-10T01:37:39.007Z,6.80
2018-11-10T01:40:09.219Z,6.80
2018-11-10T01:42:37.865Z,6.80
2018-11-10T01:45:08.733Z,6.80
2018-11-10T01:47:37.533Z,6.80
2018-11-10T01:50:06.557Z,6.80
2018-11-10T01:52:34.841Z,6.70
2018-11-10T01:55:03.216Z,6.70
2018-11-10T01:57:31.816Z,6.80
2018-11-10T02:00:00.192Z,6.80
2018-11-10T02:02:29.614Z,6.80
2018-11-10T02:04:58.051Z,6.80
2018-11-10T02:07:26.589Z,6.70
2018-11-10T02:09:55.146Z,6.80
2018-11-10T02:12:23.409Z,6.80
2018-11-10T02:14:51.905Z,6.70
2018-11-10T02:17:20.441Z,6.70
2018-11-10T02:19:49.036Z,6.70
2018-11-10T02:22:17.621Z,6.70
2018-11-10T02:24:46.031Z,6.60
2018-11-10T02:27:21.325Z,6.60
2018-11-10T02:29:51.911Z,6.60
2018-11-10T02:32:20.749Z,6.60
2018-11-10T02:34:49.167Z,6.70
2018-11-10T02:37:17.780Z,6.60
2018-11-10T02:39:46.321Z,6.60
2018-11-10T02:42:14.914Z,6.70
2018-11-10T02:44:43.175Z,6.70
2018-11-10T02:47:11.440Z,6.70
2018-11-10T02:49:39.732Z,6.60
2018-11-10T02:52:08.007Z,6.60
2018-11-10T02:54:36.264Z,6.60
2018-11-10T02:57:05.723Z,6.60
2018-11-10T02:59:34.022Z,6.60
2018-11-10T03:02:02.441Z,6.50
2018-11-10T03:04:30.816Z,6.60
2018-11-10T03:06:59.147Z,6.50
2018-11-10T03:09:27.679Z,6.50
2018-11-10T03:11:56.275Z,6.60
2018-11-10T03:14:24.541Z,6.60
2018-11-10T03:16:53.352Z,6.70
2018-11-10T03:19:21.813Z,6.60
2018-11-10T03:21:50.377Z,6.60
2018-11-10T03:24:18.669Z,6.60
2018-11-10T03:26:46.980Z,6.60
2018-11-10T03:29:15.619Z,6.60
2018-11-10T03:31:44.036Z,6.60
2018-11-10T03:34:12.584Z,6.50
2018-11-10T03:36:41.136Z,6.50
2018-11-10T03:39:11.535Z,6.50
2018-11-10T03:41:39.994Z,6.50
2018-11-10T03:44:09.630Z,6.50
2018-11-10T03:46:38.415Z,6.40
2018-11-10T03:49:07.276Z,6.50
2018-11-10T03:51:35.704Z,6.50
2018-11-10T03:54:04.460Z,6.50
2018-11-10T03:56:33.063Z,6.40
2018-11-10T03:59:01.603Z,6.40
2018-11-10T04:01:29.884Z,6.50
2018-11-10T04:03:58.152Z,6.40
2018-11-10T04:06:26.744Z,6.40
2018-11-10T04:08:55.753Z,6.40
2018-11-10T04:11:24.051Z,6.50
2018-11-10T04:13:52.617Z,6.50
2018-11-10T04:16:21.679Z,6.40
2018-11-10T04:18:49.935Z,6.50
2018-11-10T04:21:18.257Z,6.50
2018-11-10T04:23:46.837Z,6.50
2018-11-10T04:26:15.416Z,6.50
2018-11-10T04:28:43.977Z,6.50
2018-11-10T04:31:12.511Z,6.50
2018-11-10T04:33:41.431Z,6.40
2018-11-10T04:36:09.939Z,6.40
2018-11-10T04:38:38.511Z,6.30
2018-11-10T04:41:07.625Z,6.30
2018-11-10T04:43:35.887Z,6.30
2018-11-10T04:46:04.425Z,6.30
2018-11-10T04:48:32.946Z,6.30
2018-11-10T04:51:01.214Z,6.30
2018-11-10T04:53:29.492Z,6.30
2018-11-10T04:55:57.831Z,6.30
2018-11-10T04:58:26.109Z,6.30
2018-11-10T05:00:54.368Z,6.40
2018-11-10T05:03:23.068Z,6.40
2018-11-10T05:05:51.475Z,6.40
2018-11-10T05:08:19.737Z,6.40
2018-11-10T05:10:48.429Z,6.40
2018-11-10T05:13:16.704Z,6.30
2018-11-10T05:15:45.616Z,6.30
2018-11-10T05:18:14.188Z,6.30
2018-11-10T05:20:42.705Z,6.30
2018-11-10T05:23:10.962Z,6.30
2018-11-10T05:25:39.539Z,6.40
2018-11-10T05:28:08.036Z,6.40
2018-11-10T05:30:36.303Z,6.40
2018-11-10T05:33:05.315Z,6.40
2018-11-10T05:35:33.572Z,6.40
2018-11-10T05:38:01.940Z,6.30
2018-11-10T05:40:30.208Z,6.30
2018-11-10T05:42:58.740Z,6.30
2018-11-10T05:45:27.015Z,6.30
2018-11-10T05:47:55.719Z,6.30
2018-11-10T05:50:24.325Z,6.30
2018-11-10T05:52:53.431Z,6.40
2018-11-10T05:55:22.560Z,6.30
2018-11-10T05:57:50.863Z,6.30
2018-11-10T06:00:19.840Z,6.30
2018-11-10T06:02:48.436Z,6.30
2018-11-10T06:05:16.711Z,6.20
2018-11-10T06:07:44.983Z,6.30
2018-11-10T06:10:13.633Z,6.30
2018-11-10T06:12:42.532Z,6.40
2018-11-10T06:15:11.045Z,6.30
2018-11-10T06:17:39.618Z,6.40
2018-11-10T06:20:10.503Z,6.30
2018-11-10T06:22:38.965Z,6.30
2018-11-10T06:25:08.024Z,6.30
2018-11-10T06:27:36.292Z,6.20
2018-11-10T06:30:06.133Z,6.20
2018-11-10T06:32:34.766Z,6.20
2018-11-10T06:35:03.875Z,6.20
2018-11-10T06:37:32.175Z,6.20
2018-11-10T06:40:00.681Z,6.20
2018-11-10T06:42:28.984Z,6.20
2018-11-10T06:44:57.825Z,6.20
2018-11-10T06:47:26.329Z,6.20
2018-11-10T06:49:54.850Z,6.30
2018-11-10T06:52:23.407Z,6.20
2018-11-10T06:54:51.828Z,6.20
2018-11-10T06:57:20.075Z,6.30
2018-11-10T06:59:48.508Z,6.30
2018-11-10T07:02:17.052Z,6.20
2018-11-10T07:04:45.576Z,6.10
2018-11-10T07:07:14.001Z,6.10
2018-11-10T07:09:42.815Z,6.10
2018-11-10T07:12:11.455Z,6.10
2018-11-10T07:14:40.032Z,6.10
2018-11-10T07:17:08.594Z,6.20
2018-11-10T07:19:37.264Z,6.20
2018-11-10T07:22:05.986Z,6.10
2018-11-10T07:24:34.246Z,6.10
2018-11-10T07:27:02.784Z,6.20
2018-11-10T07:29:31.371Z,6.30
2018-11-10T07:32:00.016Z,6.30
2018-11-10T07:34:28.695Z,6.30
2018-11-10T07:36:57.337Z,6.30
2018-11-10T07:39:25.606Z,6.40
2018-11-10T07:41:54.041Z,6.40
2018-11-10T07:44:22.722Z,6.30
2018-11-10T07:46:51.427Z,6.30
2018-11-10T07:49:20.362Z,6.40
2018-11-10T07:51:48.876Z,6.50
2018-11-10T07:54:17.295Z,6.50
2018-11-10T07:56:46.256Z,6.50
2018-11-10T07:59:14.612Z,6.50
2018-11-10T08:01:42.975Z,6.50
2018-11-10T08:04:11.600Z,6.60
2018-11-10T08:06:40.016Z,6.60
2018-11-10T08:09:09.308Z,6.60
2018-11-10T08:11:38.064Z,6.50
2018-11-10T08:14:06.858Z,6.50
2018-11-10T08:16:35.943Z,6.50
2018-11-10T08:19:04.856Z,6.40
2018-11-10T08:21:33.251Z,6.50
2018-11-10T08:24:01.530Z,6.50
2018-11-10T08:26:30.202Z,6.50
2018-11-10T08:28:58.742Z,6.60
2018-11-10T08:31:27.108Z,6.60
2018-11-10T08:33:55.690Z,6.60
2018-11-10T08:36:24.527Z,6.70
2018-11-10T08:38:52.811Z,6.90
2018-11-10T08:41:21.355Z,7.10
2018-11-10T08:43:49.655Z,7.20
2018-11-10T08:46:18.164Z,7.20
2018-11-10T08:48:46.624Z,7.30
2018-11-10T08:51:15.402Z,7.30
2018-11-10T08:53:43.679Z,7.30
2018-11-10T08:56:12.183Z,7.30
2018-11-10T08:58:41.064Z,7.40
2018-11-10T09:01:09.911Z,7.60
2018-11-10T09:03:38.192Z,7.50
2018-11-10T09:06:06.828Z,7.40
2018-11-10T09:08:35.436Z,7.50
2018-11-10T09:11:03.913Z,7.60
2018-11-10T09:13:32.297Z,7.70
2018-11-10T09:16:00.671Z,7.80
2018-11-10T09:18:28.948Z,7.90
2018-11-10T09:20:57.579Z,7.90
2018-11-10T09:23:26.324Z,8.00
2018-11-10T09:25:54.902Z,8.00
2018-11-10T09:28:23.203Z,8.20
2018-11-10T09:30:51.881Z,8.30
2018-11-10T09:33:20.271Z,8.30
2018-11-10T09:35:48.619Z,8.30
2018-11-10T09:38:16.915Z,8.50
2018-11-10T09:40:45.216Z,8.60
2018-11-10T09:43:13.522Z,8.60
2018-11-10T09:45:42.071Z,8.80
2018-11-10T09:48:10.323Z,9.50
2018-11-10T09:50:38.625Z,10.80
2018-11-10T09:53:07.367Z,12.10
2018-11-10T09:55:36.262Z,12.60
2018-11-10T09:58:06.921Z,13.30
2018-11-10T10:00:35.194Z,13.90
2018-11-10T10:03:03.730Z,13.80
2018-11-10T10:05:32.033Z,14.50
2018-11-10T10:08:00.574Z,15.20
2018-11-10T10:10:28.844Z,16.00
2018-11-10T10:12:57.412Z,15.80
2018-11-10T10:15:26.024Z,15.30
2018-11-10T10:17:54.556Z,15.20
2018-11-10T10:20:23.133Z,15.10
2018-11-10T10:22:51.410Z,15.20
2018-11-10T10:25:20.373Z,15.90
2018-11-10T10:27:49.471Z,15.40
2018-11-10T10:30:19.815Z,15.50
2018-11-10T10:32:48.728Z,14.80
2018-11-10T10:35:17.425Z,13.70
2018-11-10T10:37:47.323Z,13.00
2018-11-10T10:40:16.535Z,12.30
2018-11-10T10:42:45.633Z,11.80
2018-11-10T10:45:17.134Z,11.40
2018-11-10T10:47:45.754Z,11.20
2018-11-10T10:50:15.373Z,11.20
2018-11-10T10:52:44.274Z,11.30
2018-11-10T10:55:14.154Z,11.30
2018-11-10T10:57:43.722Z,11.20
2018-11-10T11:00:18.553Z,11.10
2018-11-10T11:02:52.339Z,10.90
2018-11-10T11:05:26.483Z,10.80
2018-11-10T11:07:55.716Z,10.80
2018-11-10T11:10:24.263Z,11.00
2018-11-10T11:12:52.834Z,10.90
2018-11-10T11:15:21.603Z,11.00
2018-11-10T11:17:50.054Z,11.10
2018-11-10T11:20:18.767Z,11.20
2018-11-10T11:22:47.412Z,11.10
2018-11-10T11:25:15.984Z,11.10
2018-11-10T11:27:44.570Z,11.00
2018-11-10T11:30:13.359Z,11.00
2018-11-10T11:32:41.889Z,11.00
2018-11-10T11:35:12.023Z,11.00
2018-11-10T11:37:41.872Z,11.00
2018-11-10T11:40:12.519Z,11.00
2018-11-10T11:42:41.511Z,10.90
2018-11-10T11:45:11.971Z,10.80
2018-11-10T11:47:41.563Z,10.80
2018-11-10T11:50:11.442Z,10.80
2018-11-10T11:52:40.380Z,10.70
2018-11-10T11:55:10.522Z,10.80
2018-11-10T11:57:39.132Z,10.80
2018-11-10T12:00:10.556Z,10.80
2018-11-10T12:02:39.355Z,10.80
2018-11-10T12:05:09.190Z,10.80
2018-11-10T12:07:37.933Z,10.90
2018-11-10T12:10:07.338Z,10.90
2018-11-10T12:12:35.757Z,10.90
2018-11-10T12:15:04.134Z,10.90
2018-11-10T12:17:32.878Z,10.80
2018-11-10T12:20:01.270Z,10.70
2018-11-10T12:22:29.579Z,10.80
2018-11-10T12:24:57.863Z,10.90
2018-11-10T12:27:26.747Z,10.90
2018-11-10T12:29:55.211Z,10.90
2018-11-10T12:32:24.024Z,11.00
2018-11-10T12:34:52.596Z,11.10
2018-11-10T12:37:20.898Z,10.90
2018-11-10T12:39:49.301Z,10.90
2018-11-10T12:42:17.843Z,10.90
2018-11-10T12:44:46.243Z,11.00
2018-11-10T12:47:14.781Z,10.90
2018-11-10T12:49:43.072Z,10.80
2018-11-10T12:52:11.689Z,10.70
2018-11-10T12:54:40.121Z,10.70
2018-11-10T12:57:08.682Z,10.80
2018-11-10T12:59:37.019Z,10.70
2018-11-10T13:02:05.331Z,10.80
2018-11-10T13:04:33.579Z,10.90
2018-11-10T13:07:02.081Z,10.80
2018-11-10T13:09:30.624Z,10.80
2018-11-10T13:11:58.932Z,10.80
2018-11-10T13:14:27.451Z,10.70
2018-11-10T13:16:56.163Z,10.80
2018-11-10T13:19:24.604Z,10.80
2018-11-10T13:21:53.262Z,10.80
2018-11-10T13:24:21.813Z,10.80
2018-11-10T13:26:50.734Z,10.80
2018-11-10T13:29:19.581Z,10.80
2018-11-10T13:31:48.361Z,10.80
2018-11-10T13:34:17.059Z,10.80
2018-11-10T13:36:45.337Z,10.80
2018-11-10T13:39:13.866Z,10.80
2018-11-10T13:41:42.277Z,10.80
2018-11-10T13:44:11.079Z,10.80
2018-11-10T13:46:39.961Z,10.90
2018-11-10T13:49:08.246Z,10.80
2018-11-10T13:51:37.345Z,10.70
2018-11-10T13:54:06.048Z,10.70
2018-11-10T13:56:34.627Z,10.70
2018-11-10T13:59:03.020Z,10.60
2018-11-10T14:01:31.578Z,10.70
2018-11-10T14:04:00.112Z,10.70
2018-11-10T14:06:28.381Z,10.60
2018-11-10T14:08:56.743Z,10.50
2018-11-10T14:11:24.991Z,10.50
2018-11-10T14:13:53.543Z,10.40
2018-11-10T14:16:22.968Z,10.40
2018-11-10T14:18:51.536Z,10.50
2018-11-10T14:21:20.116Z,10.40
2018-11-10T14:23:48.386Z,10.40
2018-11-10T14:26:16.681Z,10.30
2018-11-10T14:28:45.163Z,10.30
2018-11-10T14:31:13.627Z,10.20
2018-11-10T14:33:42.171Z,10.10
2018-11-10T14:36:10.601Z,10.00
2018-11-10T14:38:38.864Z,10.00
2018-11-10T14:41:07.162Z,10.00
2018-11-10T14:43:35.506Z,9.90
2018-11-10T14:46:04.087Z,9.80
2018-11-10T14:48:32.351Z,9.80
2018-11-10T14:51:00.899Z,9.70
2018-11-10T14:53:29.460Z,9.70
2018-11-10T14:55:58.265Z,9.60
2018-11-10T14:58:26.612Z,9.70
2018-11-10T15:00:55.024Z,9.60
2018-11-10T15:03:23.284Z,9.50
2018-11-10T15:05:51.865Z,9.40
2018-11-10T15:08:20.429Z,9.40
2018-11-10T15:10:48.671Z,9.30
2018-11-10T15:13:17.560Z,9.30
2018-11-10T15:15:45.848Z,9.30
2018-11-10T15:18:14.231Z,9.10
2018-11-10T15:20:42.732Z,9.00
2018-11-10T15:23:11.003Z,9.00
2018-11-10T15:25:39.252Z,8.90
2018-11-10T15:28:07.960Z,8.80
2018-11-10T15:30:36.826Z,8.70
2018-11-10T15:33:05.682Z,8.60
2018-11-10T15:35:34.236Z,8.60
2018-11-10T15:38:02.779Z,8.50
2018-11-10T15:40:32.942Z,8.50
2018-11-10T15:43:02.480Z,8.40
2018-11-10T15:45:30.727Z,8.30
2018-11-10T15:47:59.576Z,8.20
2018-11-10T15:50:27.920Z,8.20
2018-11-10T15:52:56.880Z,8.20
2018-11-10T15:55:25.155Z,8.10
2018-11-10T15:57:53.443Z,8.00
2018-11-10T16:00:21.987Z,8.00
2018-11-10T16:02:50.443Z,7.90
2018-11-10T16:05:19.040Z,7.90
2018-11-10T16:07:47.460Z,7.90
2018-11-10T16:10:16.134Z,7.80
2018-11-10T16:12:44.923Z,7.70
2018-11-10T16:15:15.406Z,7.70
2018-11-10T16:17:44.655Z,7.60
2018-11-10T16:20:15.216Z,7.60
2018-11-10T16:22:44.958Z,7.60
2018-11-10T16:25:13.904Z,7.50
2018-11-10T16:27:42.229Z,7.50
2018-11-10T16:30:12.709Z,7.40
2018-11-10T16:32:41.640Z,7.40
2018-11-10T16:35:09.976Z,7.40
2018-11-10T16:37:38.867Z,7.40
2018-11-10T16:40:09.126Z,7.40
2018-11-10T16:42:37.707Z,7.30
2018-11-10T16:45:06.776Z,7.20
2018-11-10T16:47:35.328Z,7.20
2018-11-10T16:50:04.601Z,7.10
2018-11-10T16:52:33.151Z,7.10
2018-11-10T16:55:02.119Z,7.10
2018-11-10T16:57:30.639Z,7.10
2018-11-10T16:59:59.031Z,7.00
2018-11-10T17:02:27.468Z,7.00
2018-11-10T17:04:55.748Z,7.00
2018-11-10T17:07:24.282Z,7.00
2018-11-10T17:09:52.630Z,6.90
2018-11-10T17:12:21.195Z,6.90
2018-11-10T17:14:49.459Z,6.90
2018-11-10T17:17:17.715Z,6.80
2018-11-10T17:19:46.119Z,6.80
2018-11-10T17:22:14.489Z,6.80
2018-11-10T17:24:43.028Z,6.80
2018-11-10T17:27:11.350Z,6.70
2018-11-10T17:29:40.331Z,6.80
2018-11-10T17:32:08.598Z,6.70
2018-11-10T17:34:37.106Z,6.70
2018-11-10T17:37:06.201Z,6.70
2018-11-10T17:39:34.564Z,6.60
2018-11-10T17:42:03.482Z,6.70
2018-11-10T17:44:32.179Z,6.80
2018-11-10T17:47:00.745Z,6.80
2018-11-10T17:49:29.053Z,6.70
2018-11-10T17:51:57.666Z,6.70
2018-11-10T17:54:26.261Z,6.70
2018-11-10T17:56:55.253Z,6.70
2018-11-10T17:59:23.777Z,6.70
2018-11-10T18:01:52.262Z,6.70
2018-11-10T18:04:20.847Z,6.70
2018-11-10T18:06:49.556Z,6.70
2018-11-10T18:09:17.831Z,6.70
2018-11-10T18:11:46.680Z,6.70
2018-11-10T18:14:14.981Z,6.70
2018-11-10T18:16:43.568Z,6.60
2018-11-10T18:19:12.440Z,6.60
2018-11-10T18:21:41.430Z,6.50
2018-11-10T18:24:09.701Z,6.50
2018-11-10T18:26:39.124Z,6.40
2018-11-10T18:29:07.551Z,6.50
2018-11-10T18:31:36.035Z,6.70
2018-11-10T18:34:04.760Z,6.90
2018-11-10T18:36:33.215Z,6.90
2018-11-10T18:39:02.253Z,6.90
2018-11-10T18:41:30.727Z,7.00
2018-11-10T18:43:58.983Z,7.00
2018-11-10T18:46:27.621Z,7.00
2018-11-10T18:48:55.937Z,7.00
2018-11-10T18:51:25.020Z,7.10
2018-11-10T18:53:54.209Z,7.00
2018-11-10T18:56:22.796Z,7.00
2018-11-10T18:58:51.364Z,7.10
2018-11-10T19:01:20.516Z,7.10
2018-11-10T19:03:50.594Z,7.10
2018-11-10T19:06:19.478Z,7.20
2018-11-10T19:08:47.894Z,7.20
2018-11-10T19:11:16.909Z,7.20
2018-11-10T19:13:46.235Z,7.30
2018-11-10T19:16:14.932Z,7.30
2018-11-10T19:18:43.742Z,7.40
2018-11-10T19:21:12.105Z,7.40
2018-11-10T19:23:40.992Z,7.40
2018-11-10T19:26:09.298Z,7.40
2018-11-10T19:28:37.679Z,7.50
2018-11-10T19:31:06.767Z,7.40
2018-11-10T19:33:35.314Z,7.50
2018-11-10T19:36:04.048Z,7.50
2018-11-10T19:38:32.564Z,7.50
2018-11-10T19:41:01.535Z,7.60
2018-11-10T19:43:29.877Z,7.60
2018-11-10T19:45:58.367Z,7.50
2018-11-10T19:48:26.798Z,7.50
2018-11-10T19:50:55.656Z,7.40
2018-11-10T19:53:24.632Z,7.40
2018-11-10T19:55:53.565Z,7.40
2018-11-10T19:58:21.840Z,7.30
2018-11-10T20:00:51.054Z,7.30
2018-11-10T20:03:19.703Z,7.30
2018-11-10T20:05:48.022Z,7.30
2018-11-10T20:08:16.927Z,7.30
2018-11-10T20:10:45.854Z,7.30
2018-11-10T20:13:14.686Z,7.30
2018-11-10T20:15:43.151Z,7.30
2018-11-10T20:18:11.460Z,7.30
2018-11-10T20:20:40.087Z,7.20
2018-11-10T20:23:08.667Z,7.10
2018-11-10T20:25:37.540Z,7.10
2018-11-10T20:28:06.173Z,7.10
2018-11-10T20:30:35.465Z,7.10
2018-11-10T20:33:03.761Z,7.10
2018-11-10T20:35:32.031Z,7.10
2018-11-10T20:38:00.541Z,7.20
2018-11-10T20:40:29.072Z,7.20
2018-11-10T20:42:57.779Z,7.30
2018-11-10T20:45:26.045Z,7.30
2018-11-10T20:47:54.751Z,7.30
2018-11-10T20:50:23.531Z,7.20
2018-11-10T20:52:52.607Z,7.20
2018-11-10T20:55:21.184Z,7.20
2018-11-10T20:57:49.952Z,7.30
2018-11-10T21:00:19.835Z,7.30
2018-11-10T21:02:48.221Z,7.30
2018-11-10T21:05:16.609Z,7.30
2018-11-10T21:07:44.971Z,7.30
2018-11-10T21:10:15.203Z,7.20
2018-11-10T21:12:45.004Z,7.20
2018-11-10T21:15:14.068Z,7.20
2018-11-10T21:17:42.790Z,7.20
2018-11-10T21:20:12.043Z,7.20
2018-11-10T21:22:40.779Z,7.20
2018-11-10T21:25:10.660Z,7.20
2018-11-10T21:27:40.280Z,7.20
2018-11-10T21:30:09.868Z,7.10
2018-11-10T21:32:38.290Z,7.00
2018-11-10T21:35:07.691Z,7.00
2018-11-10T21:37:36.539Z,7.10
2018-11-10T21:40:08.300Z,7.10
2018-11-10T21:42:36.584Z,7.10
2018-11-10T21:45:06.319Z,7.10
2018-11-10T21:47:34.631Z,7.10
2018-11-10T21:50:02.995Z,7.10
2018-11-10T21:52:31.245Z,7.10
2018-11-10T21:54:59.660Z,7.20
2018-11-10T21:57:28.137Z,7.10
2018-11-10T21:59:56.675Z,7.10
2018-11-10T22:02:25.014Z,7.10
2018-11-10T22:04:53.725Z,7.10
2018-11-10T22:07:22.058Z,7.10
2018-11-10T22:09:50.681Z,7.20
2018-11-10T22:12:19.416Z,7.20
2018-11-10T22:14:47.968Z,7.10
2018-11-10T22:17:16.682Z,7.10
2018-11-10T22:19:44.951Z,7.10
2018-11-10T22:22:13.327Z,7.10
2018-11-10T22:24:41.848Z,7.10
2018-11-10T22:27:10.135Z,7.10
2018-11-10T22:29:38.387Z,7.10
2018-11-10T22:32:06.808Z,7.10
2018-11-10T22:34:35.081Z,7.10
2018-11-10T22:37:03.912Z,7.10
2018-11-10T22:39:32.217Z,7.10
2018-11-10T22:42:00.526Z,7.10
2018-11-10T22:44:28.787Z,7.10
2018-11-10T22:46:57.117Z,7.00
2018-11-10T22:49:25.392Z,7.00
2018-11-10T22:51:53.970Z,7.10
2018-11-10T22:54:22.542Z,7.10
2018-11-10T22:56:51.179Z,7.20
2018-11-10T22:59:19.907Z,7.20
2018-11-10T23:01:48.522Z,7.20
2018-11-10T23:04:16.876Z,7.20
2018-11-10T23:06:45.748Z,7.20
2018-11-10T23:09:14.390Z,7.20
2018-11-10T23:11:42.664Z,7.10
2018-11-10T23:14:11.015Z,7.10
2018-11-10T23:16:39.605Z,7.10
2018-11-10T23:19:07.892Z,7.10
2018-11-10T23:21:36.609Z,7.10
2018-11-10T23:24:05.707Z,7.10
2018-11-10T23:26:34.016Z,7.10
2018-11-10T23:29:02.580Z,7.00
2018-11-10T23:31:31.056Z,7.00
2018-11-10T23:33:59.609Z,6.90
2018-11-10T23:36:28.163Z,6.90
2018-11-10T23:38:56.841Z,6.90
2018-11-10T23:41:25.359Z,7.00
2018-11-10T23:43:53.913Z,6.90
2018-11-10T23:46:22.368Z,7.00
2018-11-10T23:48:50.816Z,6.90
2018-11-10T23:51:19.524Z,6.90
2018-11-10T23:53:48.015Z,6.90
2018-11-10T23:56:16.565Z,6.90
2018-11-10T23:58:45.121Z,7.00
